createdAt,value
2023-03-17T00:00:50.347Z,38.25
2023-03-17T00:03:29.920Z,39.90
2023-03-17T00:06:00.159Z,41.83
2023-03-17T00:08:32.710Z,39.53
2023-03-17T00:11:01.286Z,40.30
2023-03-17T00:13:31.131Z,40.13
2023-03-17T00:16:05.525Z,39.47
2023-03-17T00:18:35.540Z,40.83
2023-03-17T00:21:04.649Z,40.25
2023-03-17T00:23:32.634Z,41.45
2023-03-17T00:26:00.592Z,35.45
2023-03-17T00:28:28.535Z,37.50
2023-03-17T00:30:59.716Z,39.50
2023-03-17T00:33:33.134Z,36.88
2023-03-17T00:36:01.848Z,37.17
2023-03-17T00:38:30.295Z,38.90
2023-03-17T00:41:00.431Z,37.63
2023-03-17T00:43:30.582Z,41.03
2023-03-17T00:45:58.987Z,38.10
2023-03-17T00:48:30.164Z,36.75
2023-03-17T00:50:58.159Z,36.25
2023-03-17T00:53:29.876Z,41.05
2023-03-17T00:56:01.401Z,37.03
2023-03-17T00:58:33.604Z,38.92
2023-03-17T01:01:02.420Z,36.88
2023-03-17T01:03:31.315Z,39.25
2023-03-17T01:06:00.196Z,38.28
2023-03-17T01:08:30.261Z,37.58
2023-03-17T01:10:59.742Z,38.30
2023-03-17T01:13:27.724Z,37.65
2023-03-17T01:15:57.275Z,37.05
2023-03-17T01:18:25.974Z,39.78
2023-03-17T01:20:54.023Z,37.83
2023-03-17T01:23:22.547Z,38.50
2023-03-17T01:25:51.165Z,39.38
2023-03-17T01:28:20.457Z,41.35
2023-03-17T01:30:49.314Z,37.95
2023-03-17T01:33:19.204Z,37.10
2023-03-17T01:35:47.306Z,38.08
2023-03-17T01:38:15.782Z,36.10
2023-03-17T01:40:48.417Z,36.58
2023-03-17T01:43:24.492Z,39.78
2023-03-17T01:46:27.898Z,35.95
2023-03-17T01:49:05.879Z,39.80
2023-03-17T01:52:16.648Z,39.83
2023-03-17T01:55:14.723Z,36.35
2023-03-17T01:57:53.650Z,38.15
2023-03-17T02:00:25.001Z,35.90
2023-03-17T02:02:56.654Z,38.15
2023-03-17T02:05:29.931Z,34.10
2023-03-17T02:07:58.922Z,38.30
2023-03-17T02:13:04.081Z,33.75
2023-03-17T02:15:48.587Z,35.55
2023-03-17T02:18:20.793Z,32.08
2023-03-17T02:20:48.658Z,35.38
2023-03-17T02:23:24.222Z,36.92
2023-03-17T02:25:53.965Z,38.05
2023-03-17T02:28:28.139Z,36.58
2023-03-17T02:30:57.460Z,39.92
2023-03-17T02:33:25.411Z,35.92
2023-03-17T02:35:57.281Z,36.83
2023-03-17T02:38:25.410Z,34.50
2023-03-17T02:40:53.409Z,36.70
2023-03-17T02:43:21.916Z,33.67
2023-03-17T02:45:49.913Z,33.20
2023-03-17T02:48:18.175Z,33.33
2023-03-17T02:50:46.486Z,36.13
2023-03-17T02:53:14.313Z,35.45
2023-03-17T02:55:43.755Z,37.22
2023-03-17T02:58:11.893Z,35.65
2023-03-17T03:00:40.619Z,35.92
2023-03-17T03:03:08.570Z,37.38
2023-03-17T03:05:36.737Z,35.72
2023-03-17T03:08:04.952Z,36.67
2023-03-17T03:10:32.908Z,37.75
2023-03-17T03:13:01.828Z,36.75
2023-03-17T03:15:29.690Z,36.72
2023-03-17T03:17:57.726Z,36.75
2023-03-17T03:20:25.910Z,37.90
2023-03-17T03:22:53.823Z,37.90
2023-03-17T03:25:22.066Z,36.10
2023-03-17T03:27:50.281Z,36.83
2023-03-17T03:30:18.354Z,35.00
2023-03-17T03:32:47.600Z,34.38
2023-03-17T03:35:15.981Z,36.63
2023-03-17T03:37:43.925Z,35.92
2023-03-17T03:40:12.767Z,36.03
2023-03-17T03:42:41.176Z,34.88
2023-03-17T03:45:10.061Z,35.25
2023-03-17T03:47:37.948Z,37.55
2023-03-17T03:50:07.148Z,35.78
2023-03-17T03:52:35.668Z,45.00
2023-03-17T03:55:04.482Z,35.63
2023-03-17T03:57:32.715Z,35.30
2023-03-17T04:00:00.786Z,33.25
2023-03-17T04:02:29.900Z,36.08
2023-03-17T04:04:58.600Z,36.50
2023-03-17T04:07:27.517Z,32.83
2023-03-17T04:09:55.703Z,35.38
2023-03-17T04:12:23.862Z,35.13
2023-03-17T04:14:51.838Z,32.90
2023-03-17T04:17:19.830Z,34.28
2023-03-17T04:19:48.573Z,33.15
2023-03-17T04:22:16.561Z,34.40
2023-03-17T04:24:44.543Z,36.45
2023-03-17T04:27:12.715Z,36.97
2023-03-17T04:29:40.674Z,35.55
2023-03-17T04:33:24.769Z,34.40
2023-03-17T04:35:52.999Z,33.33
2023-03-17T04:38:20.885Z,31.92
2023-03-17T04:40:50.803Z,33.03
2023-03-17T04:43:18.953Z,34.55
2023-03-17T04:45:46.869Z,35.63
2023-03-17T04:48:14.950Z,33.55
2023-03-17T04:50:42.934Z,33.50
2023-03-17T04:53:10.896Z,34.75
2023-03-17T04:55:39.391Z,34.90
2023-03-17T04:58:08.347Z,33.60
2023-03-17T05:00:38.930Z,33.33
2023-03-17T05:03:20.022Z,33.10
2023-03-17T05:05:54.005Z,32.53
2023-03-17T05:08:22.096Z,33.28
2023-03-17T05:10:51.556Z,34.38
2023-03-17T05:13:19.551Z,32.80
2023-03-17T05:15:49.015Z,32.15
2023-03-17T05:18:18.343Z,31.90
2023-03-17T05:23:26.350Z,32.92
2023-03-17T05:25:54.682Z,33.13
2023-03-17T05:28:23.644Z,31.23
2023-03-17T05:30:53.234Z,30.15
2023-03-17T05:33:22.030Z,31.85
2023-03-17T05:35:50.316Z,29.58
2023-03-17T05:38:19.142Z,30.08
2023-03-17T05:40:51.501Z,29.60
2023-03-17T05:43:19.819Z,30.15
2023-03-17T05:45:50.706Z,28.58
2023-03-17T05:48:18.954Z,28.20
2023-03-17T05:50:47.658Z,27.92
2023-03-17T05:53:16.416Z,27.67
2023-03-17T05:55:45.111Z,28.17
2023-03-17T05:58:15.695Z,26.52
2023-03-17T06:00:44.028Z,26.53
2023-03-17T06:03:12.204Z,27.70
2023-03-17T06:05:41.400Z,30.45
2023-03-17T06:08:10.389Z,31.67
2023-03-17T06:10:38.601Z,36.50
2023-03-17T06:13:06.775Z,38.15
2023-03-17T06:15:37.018Z,37.25
2023-03-17T06:18:06.029Z,30.40
2023-03-17T06:20:35.618Z,30.50
2023-03-17T06:23:05.921Z,29.10
2023-03-17T06:25:35.602Z,31.23
2023-03-17T06:28:05.817Z,27.63
2023-03-17T06:30:35.378Z,27.63
2023-03-17T06:33:04.299Z,26.02
2023-03-17T06:35:34.743Z,25.08
2023-03-17T06:38:03.809Z,27.33
2023-03-17T06:40:32.457Z,28.45
2023-03-17T06:43:01.454Z,29.52
2023-03-17T06:45:30.046Z,31.52
2023-03-17T06:47:59.587Z,28.58
2023-03-17T06:50:27.764Z,28.67
2023-03-17T06:52:56.585Z,29.75
2023-03-17T06:55:24.508Z,29.45
2023-03-17T06:57:52.834Z,28.77
2023-03-17T07:00:22.913Z,27.40
2023-03-17T07:02:51.357Z,26.02
2023-03-17T07:05:19.598Z,24.10
2023-03-17T07:07:47.858Z,23.63
2023-03-17T07:10:18.663Z,21.25
2023-03-17T07:12:46.764Z,20.00
2023-03-17T07:15:15.087Z,18.52
2023-03-17T07:17:43.211Z,18.77
2023-03-17T07:20:12.233Z,16.60
2023-03-17T07:22:41.876Z,15.90
2023-03-17T07:25:11.094Z,14.90
2023-03-17T07:27:39.387Z,13.80
2023-03-17T07:30:08.741Z,12.63
2023-03-17T07:32:37.790Z,12.18
2023-03-17T07:35:07.701Z,12.25
2023-03-17T07:37:37.120Z,12.00
2023-03-17T07:40:06.669Z,11.52
2023-03-17T07:42:35.827Z,11.75
2023-03-17T07:45:06.127Z,11.43
2023-03-17T07:47:34.372Z,10.95
2023-03-17T07:50:02.482Z,10.43
2023-03-17T07:52:30.832Z,10.32
2023-03-17T07:54:59.553Z,12.45
2023-03-17T07:57:27.825Z,11.30
2023-03-17T07:59:56.129Z,11.75
2023-03-17T08:02:24.489Z,10.80
2023-03-17T08:04:54.185Z,10.65
2023-03-17T08:07:22.669Z,10.07
2023-03-17T08:09:51.289Z,10.18
2023-03-17T08:12:20.323Z,9.70
2023-03-17T08:14:49.076Z,9.13
2023-03-17T08:17:17.990Z,7.68
2023-03-17T08:19:46.359Z,7.78
2023-03-17T08:22:14.577Z,7.85
2023-03-17T08:24:45.651Z,7.05
2023-03-17T08:27:14.195Z,5.75
2023-03-17T08:29:43.117Z,6.75
2023-03-17T08:32:15.134Z,6.65
2023-03-17T08:34:44.659Z,7.72
2023-03-17T08:37:13.450Z,8.15
2023-03-17T08:39:43.422Z,8.85
2023-03-17T08:42:12.047Z,6.57
2023-03-17T08:44:42.869Z,7.25
2023-03-17T08:47:12.469Z,7.15
2023-03-17T08:49:41.148Z,8.02
2023-03-17T08:52:10.121Z,7.30
2023-03-17T08:54:38.366Z,8.05
2023-03-17T08:57:09.146Z,7.03
2023-03-17T08:59:37.332Z,8.20
2023-03-17T09:02:05.904Z,7.85
2023-03-17T09:04:35.077Z,8.18
2023-03-17T09:07:04.352Z,7.07
2023-03-17T09:09:35.533Z,8.23
2023-03-17T09:12:06.394Z,8.35
2023-03-17T09:14:43.490Z,9.10
2023-03-17T09:17:14.572Z,7.20
2023-03-17T09:19:43.984Z,7.35
2023-03-17T09:22:18.917Z,7.97
2023-03-17T09:24:47.441Z,8.27
2023-03-17T09:27:15.852Z,8.02
2023-03-17T09:29:44.239Z,8.35
2023-03-17T09:32:12.660Z,8.40
2023-03-17T09:34:42.177Z,9.15
2023-03-17T09:37:10.424Z,8.60
2023-03-17T09:39:39.054Z,9.55
2023-03-17T09:42:42.159Z,7.53
2023-03-17T09:45:20.478Z,8.05
2023-03-17T09:48:29.381Z,9.68
2023-03-17T09:51:14.021Z,7.32
2023-03-17T09:54:00.388Z,8.70
2023-03-17T09:56:33.143Z,7.47
2023-03-17T09:59:34.877Z,7.53
2023-03-17T10:02:03.409Z,7.60
2023-03-17T10:04:31.910Z,6.70
2023-03-17T10:07:07.055Z,6.95
2023-03-17T10:09:46.694Z,7.75
2023-03-17T10:12:39.276Z,6.97
2023-03-17T10:15:25.429Z,6.63
2023-03-17T10:17:53.998Z,6.65
2023-03-17T10:20:27.323Z,7.00
2023-03-17T10:23:06.219Z,8.00
2023-03-17T10:25:36.716Z,9.13
2023-03-17T10:28:29.343Z,8.45
2023-03-17T10:31:18.015Z,8.13
2023-03-17T10:33:52.738Z,7.80
2023-03-17T10:36:44.483Z,4.88
2023-03-17T10:39:19.085Z,4.93
2023-03-17T10:42:07.636Z,5.63
2023-03-17T10:44:58.844Z,5.40
2023-03-17T10:47:54.580Z,5.03
2023-03-17T10:50:35.052Z,3.42
2023-03-17T10:53:09.200Z,4.53
2023-03-17T10:55:51.268Z,4.72
2023-03-17T10:58:24.097Z,4.35
2023-03-17T11:01:08.516Z,5.32
2023-03-17T11:03:40.035Z,5.32
2023-03-17T11:06:39.649Z,5.55
2023-03-17T11:09:19.631Z,5.10
2023-03-17T11:12:01.936Z,5.30
2023-03-17T11:14:30.419Z,11.15
2023-03-17T11:17:04.722Z,5.35
2023-03-17T11:19:58.293Z,8.40
2023-03-17T11:22:38.189Z,6.63
2023-03-17T11:25:23.670Z,6.88
2023-03-17T11:28:03.830Z,5.70
2023-03-17T11:30:43.619Z,5.40
2023-03-17T11:33:55.345Z,5.03
2023-03-17T11:37:10.232Z,5.07
2023-03-17T11:40:08.065Z,5.53
2023-03-17T11:43:19.089Z,4.65
2023-03-17T11:46:35.209Z,4.10
2023-03-17T11:49:18.986Z,3.55
2023-03-17T11:52:04.429Z,5.20
2023-03-17T11:55:13.018Z,6.45
2023-03-17T11:58:00.575Z,7.50
2023-03-17T12:00:42.745Z,7.28
2023-03-17T12:03:46.822Z,6.57
2023-03-17T12:06:28.413Z,6.60
2023-03-17T12:09:16.240Z,6.80
2023-03-17T12:11:46.721Z,6.25
2023-03-17T12:14:52.693Z,6.03
2023-03-17T12:17:39.383Z,5.63
2023-03-17T12:20:19.170Z,5.35
2023-03-17T12:23:12.235Z,5.63
2023-03-17T12:26:10.982Z,6.95
2023-03-17T12:29:02.343Z,6.70
2023-03-17T12:31:45.193Z,6.30
2023-03-17T12:34:57.405Z,5.22
2023-03-17T12:40:07.391Z,5.68
2023-03-17T12:43:05.175Z,5.57
2023-03-17T12:46:29.317Z,6.97
2023-03-17T12:49:36.259Z,5.20
2023-03-17T12:52:46.486Z,5.30
2023-03-17T12:55:18.764Z,5.78
2023-03-17T12:58:05.972Z,4.45
2023-03-17T13:00:50.829Z,5.18
2023-03-17T13:03:33.629Z,5.03
2023-03-17T13:06:16.665Z,5.15
2023-03-17T13:08:44.715Z,4.18
2023-03-17T13:11:34.929Z,4.32
2023-03-17T13:14:41.386Z,4.15
2023-03-17T13:17:18.040Z,4.97
2023-03-17T13:20:19.652Z,4.72
2023-03-17T13:23:24.380Z,5.28
2023-03-17T13:25:53.968Z,4.90
2023-03-17T13:28:44.508Z,4.20
2023-03-17T13:31:36.819Z,6.85
2023-03-17T13:34:16.542Z,5.30
2023-03-17T13:37:14.168Z,4.30
2023-03-17T13:40:11.212Z,6.00
2023-03-17T13:43:29.374Z,5.75
2023-03-17T13:46:38.953Z,6.10
2023-03-17T13:49:19.408Z,5.93
2023-03-17T13:52:02.036Z,4.50
2023-03-17T13:54:35.593Z,4.40
2023-03-17T13:57:39.619Z,4.88
2023-03-17T14:00:19.970Z,5.68
2023-03-17T14:02:50.358Z,4.75
2023-03-17T14:05:35.703Z,4.30
2023-03-17T14:08:22.000Z,4.90
2023-03-17T14:11:01.865Z,4.75
2023-03-17T14:13:43.725Z,4.47
2023-03-17T14:19:28.622Z,4.07
2023-03-17T14:22:04.764Z,4.35
2023-03-17T14:24:34.687Z,4.35
2023-03-17T14:27:08.060Z,4.03
2023-03-17T14:29:37.772Z,4.63
2023-03-17T14:32:18.660Z,5.72
2023-03-17T14:34:54.632Z,5.97
2023-03-17T14:37:23.688Z,4.78
2023-03-17T14:39:56.542Z,4.70
2023-03-17T14:42:31.108Z,4.93
2023-03-17T14:45:06.814Z,3.92
2023-03-17T14:47:41.745Z,5.43
2023-03-17T14:50:29.898Z,5.07
2023-03-17T14:53:01.811Z,4.78
2023-03-17T14:55:43.637Z,5.35
2023-03-17T14:58:31.424Z,4.85
2023-03-17T15:01:35.296Z,5.18
2023-03-17T15:04:33.499Z,5.35
2023-03-17T15:07:04.716Z,6.22
2023-03-17T15:09:37.877Z,6.43
2023-03-17T15:12:18.260Z,4.40
2023-03-17T15:14:50.699Z,4.78
2023-03-17T15:17:23.148Z,5.32
2023-03-17T15:19:55.158Z,4.60
2023-03-17T15:22:31.285Z,3.97
2023-03-17T15:25:38.263Z,4.35
2023-03-17T15:28:17.203Z,5.65
2023-03-17T15:30:50.549Z,4.95
2023-03-17T15:33:29.894Z,5.38
2023-03-17T15:36:00.202Z,4.32
2023-03-17T15:38:28.915Z,5.57
2023-03-17T15:40:57.581Z,4.05
2023-03-17T15:43:26.274Z,4.95
2023-03-17T15:46:11.347Z,4.82
2023-03-17T15:48:39.848Z,6.50
2023-03-17T15:51:08.529Z,7.10
2023-03-17T15:53:36.655Z,6.43
2023-03-17T15:56:04.856Z,7.07
2023-03-17T15:58:33.082Z,6.57
2023-03-17T16:01:03.836Z,5.65
2023-03-17T16:03:34.857Z,8.60
2023-03-17T16:06:13.300Z,7.28
2023-03-17T16:08:41.908Z,6.18
2023-03-17T16:11:28.473Z,9.90
2023-03-17T16:14:00.153Z,7.20
2023-03-17T16:16:41.245Z,6.93
2023-03-17T16:19:23.382Z,9.93
2023-03-17T16:21:52.381Z,5.97
2023-03-17T16:24:25.966Z,8.88
2023-03-17T16:26:54.237Z,9.55
2023-03-17T16:29:22.965Z,9.63
2023-03-17T16:31:51.705Z,8.32
2023-03-17T16:34:24.202Z,8.40
2023-03-17T16:36:54.308Z,15.90
2023-03-17T16:39:23.976Z,15.35
2023-03-17T16:41:53.860Z,12.98
2023-03-17T16:44:25.968Z,14.18
2023-03-17T16:46:54.239Z,9.38
2023-03-17T16:49:23.343Z,11.50
2023-03-17T16:51:52.187Z,19.65
2023-03-17T16:54:20.374Z,16.90
2023-03-17T16:56:49.205Z,21.08
2023-03-17T16:59:21.861Z,13.52
2023-03-17T17:01:49.969Z,16.85
2023-03-17T17:04:18.213Z,11.48
2023-03-17T17:06:46.264Z,11.48
2023-03-17T17:09:14.382Z,14.15
2023-03-17T17:11:43.098Z,11.93
2023-03-17T17:14:11.400Z,12.27
2023-03-17T17:16:40.459Z,14.57
2023-03-17T17:19:26.994Z,21.27
2023-03-17T17:21:55.000Z,22.85
2023-03-17T17:24:23.178Z,21.55
2023-03-17T17:26:51.325Z,27.80
2023-03-17T17:29:19.405Z,25.83
2023-03-17T17:31:47.445Z,24.02
2023-03-17T17:34:15.816Z,16.38
2023-03-17T17:36:44.293Z,26.10
2023-03-17T17:39:12.412Z,22.92
2023-03-17T17:41:40.709Z,18.98
2023-03-17T17:44:08.943Z,12.93
2023-03-17T17:46:37.840Z,7.93
2023-03-17T17:49:08.894Z,13.45
2023-03-17T17:51:37.139Z,14.05
2023-03-17T17:54:06.051Z,10.45
2023-03-17T17:56:38.290Z,12.38
2023-03-17T17:59:07.184Z,15.13
2023-03-17T18:01:35.401Z,15.30
2023-03-17T18:04:04.116Z,14.25
2023-03-17T18:06:32.406Z,10.05
2023-03-17T18:09:00.733Z,11.13
2023-03-17T18:11:29.186Z,9.90
2023-03-17T18:13:57.658Z,9.98
2023-03-17T18:16:25.956Z,10.52
2023-03-17T18:18:54.284Z,11.35
2023-03-17T18:21:23.273Z,9.88
2023-03-17T18:23:55.673Z,11.00
2023-03-17T18:26:24.658Z,7.15
2023-03-17T18:28:53.078Z,7.90
2023-03-17T18:31:37.557Z,7.25
2023-03-17T18:34:12.936Z,7.90
2023-03-17T18:36:41.562Z,7.88
2023-03-17T18:39:09.765Z,8.13
2023-03-17T18:41:38.724Z,7.57
2023-03-17T18:44:10.486Z,9.00
2023-03-17T18:46:39.666Z,7.18
2023-03-17T18:49:09.184Z,6.20
2023-03-17T18:51:38.033Z,8.27
2023-03-17T18:54:06.740Z,7.03
2023-03-17T18:56:35.131Z,7.30
2023-03-17T18:59:03.760Z,6.93
2023-03-17T19:01:32.865Z,8.02
2023-03-17T19:04:01.584Z,6.70
2023-03-17T19:06:30.325Z,8.88
2023-03-17T19:08:58.780Z,9.88
2023-03-17T19:11:27.353Z,7.68
2023-03-17T19:13:56.036Z,10.48
2023-03-17T19:16:29.128Z,10.55
2023-03-17T19:18:59.832Z,10.90
2023-03-17T19:21:28.576Z,9.82
2023-03-17T19:24:01.478Z,7.38
2023-03-17T19:26:31.463Z,7.18
2023-03-17T19:29:00.143Z,6.78
2023-03-17T19:31:28.596Z,9.77
2023-03-17T19:33:56.833Z,8.75
2023-03-17T19:36:25.530Z,6.65
2023-03-17T19:38:53.824Z,7.25
2023-03-17T19:41:23.695Z,8.20
2023-03-17T19:43:52.594Z,8.00
2023-03-17T19:46:22.014Z,7.07
2023-03-17T19:48:50.439Z,7.38
2023-03-17T19:51:18.544Z,7.05
2023-03-17T19:53:46.818Z,6.10
2023-03-17T19:56:15.513Z,6.95
2023-03-17T19:58:43.846Z,7.80
2023-03-17T20:01:13.962Z,7.60
2023-03-17T20:03:42.743Z,8.38
2023-03-17T20:06:13.330Z,7.90
2023-03-17T20:08:43.351Z,7.60
2023-03-17T20:11:13.480Z,6.30
2023-03-17T20:13:43.031Z,7.85
2023-03-17T20:16:13.498Z,6.40
2023-03-17T20:18:42.003Z,7.97
2023-03-17T20:21:16.567Z,6.15
2023-03-17T20:23:45.128Z,6.68
2023-03-17T20:26:13.409Z,7.32
2023-03-17T20:28:41.879Z,7.85
2023-03-17T20:31:10.434Z,7.20
2023-03-17T20:33:38.634Z,12.25
2023-03-17T20:36:07.350Z,11.85
2023-03-17T20:38:39.089Z,8.32
2023-03-17T20:41:26.040Z,6.60
2023-03-17T20:43:54.162Z,6.60
2023-03-17T20:46:25.530Z,7.32
2023-03-17T20:48:58.992Z,10.60
2023-03-17T20:51:27.799Z,8.60
2023-03-17T20:53:56.914Z,9.02
2023-03-17T20:56:27.134Z,7.65
2023-03-17T20:58:56.496Z,7.70
2023-03-17T21:01:25.783Z,7.55
2023-03-17T21:03:53.989Z,7.05
2023-03-17T21:06:25.581Z,7.38
2023-03-17T21:08:55.558Z,8.18
2023-03-17T21:11:26.631Z,11.13
2023-03-17T21:13:55.945Z,9.88
2023-03-17T21:16:28.457Z,9.50
2023-03-17T21:18:57.275Z,10.32
2023-03-17T21:21:27.206Z,9.82
2023-03-17T21:23:56.440Z,9.07
2023-03-17T21:26:26.621Z,8.77
2023-03-17T21:28:56.932Z,8.55
2023-03-17T21:31:25.145Z,10.07
2023-03-17T21:33:53.442Z,7.35
2023-03-17T21:36:22.137Z,7.80
2023-03-17T21:38:51.827Z,8.38
2023-03-17T21:41:25.022Z,10.43
2023-03-17T21:43:53.269Z,9.27
2023-03-17T21:46:21.813Z,7.35
2023-03-17T21:48:50.472Z,9.70
2023-03-17T21:51:19.041Z,9.73
2023-03-17T21:53:47.798Z,8.50
2023-03-17T21:56:17.086Z,10.05
2023-03-17T21:58:45.770Z,9.95
2023-03-17T22:01:14.764Z,8.10
2023-03-17T22:03:43.475Z,10.05
2023-03-17T22:06:13.474Z,8.75
2023-03-17T22:08:41.560Z,8.98
2023-03-17T22:11:13.607Z,9.93
2023-03-17T22:13:43.151Z,8.07
2023-03-17T22:16:13.063Z,8.55
2023-03-17T22:18:42.129Z,9.95
2023-03-17T22:21:11.000Z,7.60
2023-03-17T22:23:42.991Z,10.60
2023-03-17T22:26:22.896Z,9.30
2023-03-17T22:28:51.870Z,9.57
2023-03-17T22:31:27.289Z,8.73
2023-03-17T22:33:59.629Z,8.85
2023-03-17T22:36:29.535Z,9.30
2023-03-17T22:41:46.350Z,8.35
2023-03-17T22:44:14.496Z,8.93
2023-03-17T22:46:42.943Z,8.50
2023-03-17T22:49:11.764Z,7.57
2023-03-17T22:51:43.478Z,7.82
2023-03-17T22:56:40.443Z,7.90
2023-03-17T22:59:08.662Z,8.38
2023-03-17T23:01:36.796Z,8.07
2023-03-17T23:04:05.104Z,8.68
2023-03-17T23:06:33.230Z,8.50
2023-03-17T23:09:01.326Z,7.18
2023-03-17T23:11:29.627Z,9.20
2023-03-17T23:13:57.806Z,8.23
2023-03-17T23:16:25.973Z,8.18
2023-03-17T23:18:54.540Z,7.03
2023-03-17T23:21:39.343Z,6.80
2023-03-17T23:24:08.867Z,7.20
2023-03-17T23:26:38.133Z,6.20
2023-03-17T23:29:10.738Z,6.38
2023-03-17T23:31:39.923Z,7.97
2023-03-17T23:34:09.195Z,6.70
2023-03-17T23:36:40.432Z,7.15
2023-03-17T23:39:09.279Z,6.78
2023-03-17T23:41:37.400Z,6.57
2023-03-17T23:44:06.848Z,5.55
2023-03-17T23:46:34.904Z,6.45
2023-03-17T23:49:04.666Z,6.43
2023-03-17T23:51:33.590Z,6.55
2023-03-17T23:54:01.814Z,6.57
2023-03-17T23:56:29.811Z,7.13
2023-03-17T23:58:58.054Z,6.40
